Alcobendas, Spain
Current Conditions -  °F | °C
As of 9:30 PM on Saturday 20 Dec 2014 (Local Time) from LEMD Reporting Station
Clear Clear  
Wind Chill: 45°   Ceiling: Unl
Heat Index: 45°   Visibility: 6mi
Dew Point: 41°   Wind: 2mph
Humidity: 87%   Direction: 320°NW
Pressure: 30.5"   Gusts: NA
Location:  40.55°N, 3.64°W
Report Text: LEMD 202030Z 32002KT CAVOK 07/05 Q1033 NOSIG
Loading
Personal Weather Stations






























Interactive Weather Map New forecast layout! Learn more

10-Day Weather Forecast

Advertisements
Track Severe Weather on mobile